sensor_id;sensor_type;location;lat;lon;timestamp;pressure;altitude;pressure_sealevel;temperature;humidity
24858;BME280;12935;50.782;6.074;2022-10-16T00:00:56;99036.44;;;14.47;100.00
24858;BME280;12935;50.782;6.074;2022-10-16T00:03:21;99037.28;;;14.44;100.00
24858;BME280;12935;50.782;6.074;2022-10-16T00:05:47;99036.50;;;14.27;100.00
24858;BME280;12935;50.782;6.074;2022-10-16T00:08:12;99023.34;;;14.35;100.00
24858;BME280;12935;50.782;6.074;2022-10-16T00:10:39;99026.69;;;14.26;100.00
24858;BME280;12935;50.782;6.074;2022-10-16T00:13:05;99026.84;;;14.35;100.00
24858;BME280;12935;50.782;6.074;2022-10-16T00:15:33;99028.75;;;14.22;100.00
24858;BME280;12935;50.782;6.074;2022-10-16T00:18:01;99023.44;;;14.31;100.00
24858;BME280;12935;50.782;6.074;2022-10-16T00:20:26;99021.63;;;14.25;100.00
24858;BME280;12935;50.782;6.074;2022-10-16T00:22:52;99031.94;;;14.21;100.00
24858;BME280;12935;50.782;6.074;2022-10-16T00:25:17;99022.13;;;14.20;100.00
24858;BME280;12935;50.782;6.074;2022-10-16T00:27:42;99021.28;;;14.23;100.00
24858;BME280;12935;50.782;6.074;2022-10-16T00:30:08;99018.97;;;14.21;100.00
24858;BME280;12935;50.782;6.074;2022-10-16T00:32:33;99013.38;;;14.25;100.00
24858;BME280;12935;50.782;6.074;2022-10-16T00:34:58;99012.19;;;14.26;100.00
24858;BME280;12935;50.782;6.074;2022-10-16T00:37:25;99010.63;;;14.25;100.00
24858;BME280;12935;50.782;6.074;2022-10-16T00:39:50;99015.72;;;14.26;100.00
24858;BME280;12935;50.782;6.074;2022-10-16T00:42:17;99011.84;;;14.24;100.00
24858;BME280;12935;50.782;6.074;2022-10-16T00:47:21;99010.97;;;14.27;100.00
24858;BME280;12935;50.782;6.074;2022-10-16T00:49:50;99017.69;;;14.26;100.00
24858;BME280;12935;50.782;6.074;2022-10-16T00:52:17;99018.88;;;14.25;100.00
24858;BME280;12935;50.782;6.074;2022-10-16T00:54:42;99021.97;;;14.11;100.00
24858;BME280;12935;50.782;6.074;2022-10-16T00:57:08;99031.41;;;14.10;100.00
24858;BME280;12935;50.782;6.074;2022-10-16T00:59:39;99031.59;;;14.19;100.00
24858;BME280;12935;50.782;6.074;2022-10-16T01:02:08;99046.53;;;14.18;100.00
24858;BME280;12935;50.782;6.074;2022-10-16T01:04:41;99038.19;;;14.05;100.00
24858;BME280;12935;50.782;6.074;2022-10-16T01:10:00;99024.88;;;14.20;100.00
24858;BME280;12935;50.782;6.074;2022-10-16T01:12:53;99032.19;;;14.26;100.00
24858;BME280;12935;50.782;6.074;2022-10-16T01:18:23;99037.41;;;14.37;100.00
24858;BME280;12935;50.782;6.074;2022-10-16T01:21:16;99060.38;;;14.30;100.00
24858;BME280;12935;50.782;6.074;2022-10-16T01:24:02;99051.34;;;14.30;100.00
24858;BME280;12935;50.782;6.074;2022-10-16T01:26:35;99046.72;;;14.27;100.00
24858;BME280;12935;50.782;6.074;2022-10-16T01:29:09;99042.84;;;14.24;100.00
24858;BME280;12935;50.782;6.074;2022-10-16T01:31:39;99049.63;;;14.20;100.00
24858;BME280;12935;50.782;6.074;2022-10-16T01:34:10;99049.72;;;14.16;100.00
24858;BME280;12935;50.782;6.074;2022-10-16T01:36:42;99052.97;;;14.27;100.00
24858;BME280;12935;50.782;6.074;2022-10-16T01:39:11;99052.56;;;14.29;100.00
24858;BME280;12935;50.782;6.074;2022-10-16T01:41:41;99057.41;;;14.05;100.00
24858;BME280;12935;50.782;6.074;2022-10-16T01:44:18;99062.84;;;14.09;100.00
24858;BME280;12935;50.782;6.074;2022-10-16T01:46:47;99064.97;;;14.17;100.00
24858;BME280;12935;50.782;6.074;2022-10-16T01:49:14;99060.09;;;14.25;100.00
24858;BME280;12935;50.782;6.074;2022-10-16T01:51:41;99067.06;;;14.13;100.00
24858;BME280;12935;50.782;6.074;2022-10-16T01:54:09;99064.56;;;14.19;100.00
24858;BME280;12935;50.782;6.074;2022-10-16T01:56:36;99058.22;;;14.22;100.00
24858;BME280;12935;50.782;6.074;2022-10-16T01:59:11;99053.75;;;14.28;100.00
24858;BME280;12935;50.782;6.074;2022-10-16T02:01:40;99060.59;;;14.20;100.00
24858;BME280;12935;50.782;6.074;2022-10-16T02:04:21;99064.47;;;14.22;100.00
24858;BME280;12935;50.782;6.074;2022-10-16T02:06:48;99086.44;;;14.06;100.00
24858;BME280;12935;50.782;6.074;2022-10-16T02:09:14;99075.38;;;14.10;100.00
24858;BME280;12935;50.782;6.074;2022-10-16T02:11:42;99074.44;;;14.16;100.00
24858;BME280;12935;50.782;6.074;2022-10-16T02:14:08;99076.88;;;14.30;100.00
24858;BME280;12935;50.782;6.074;2022-10-16T02:16:42;99068.00;;;14.23;100.00
24858;BME280;12935;50.782;6.074;2022-10-16T02:19:08;99082.59;;;14.20;100.00
24858;BME280;12935;50.782;6.074;2022-10-16T02:21:44;99080.97;;;14.22;100.00
24858;BME280;12935;50.782;6.074;2022-10-16T02:27:21;99072.63;;;14.10;100.00
24858;BME280;12935;50.782;6.074;2022-10-16T02:29:52;99072.44;;;14.17;100.00
24858;BME280;12935;50.782;6.074;2022-10-16T02:32:21;99075.13;;;14.20;100.00
24858;BME280;12935;50.782;6.074;2022-10-16T02:34:49;99087.66;;;14.21;100.00
24858;BME280;12935;50.782;6.074;2022-10-16T02:37:16;99064.06;;;14.24;100.00
24858;BME280;12935;50.782;6.074;2022-10-16T02:39:43;99076.50;;;14.12;100.00
24858;BME280;12935;50.782;6.074;2022-10-16T02:42:15;99058.16;;;13.89;100.00
24858;BME280;12935;50.782;6.074;2022-10-16T02:44:40;99069.50;;;13.91;100.00
24858;BME280;12935;50.782;6.074;2022-10-16T02:47:05;99070.19;;;13.95;100.00
24858;BME280;12935;50.782;6.074;2022-10-16T02:49:31;99053.97;;;14.01;100.00
24858;BME280;12935;50.782;6.074;2022-10-16T02:51:56;99052.28;;;14.07;100.00
24858;BME280;12935;50.782;6.074;2022-10-16T02:54:22;99060.41;;;13.94;100.00
24858;BME280;12935;50.782;6.074;2022-10-16T02:56:47;99063.31;;;13.87;100.00
24858;BME280;12935;50.782;6.074;2022-10-16T02:59:12;99063.94;;;13.95;100.00
24858;BME280;12935;50.782;6.074;2022-10-16T03:01:37;99055.28;;;13.96;100.00
24858;BME280;12935;50.782;6.074;2022-10-16T03:04:03;99063.34;;;14.03;100.00
24858;BME280;12935;50.782;6.074;2022-10-16T03:06:28;99067.28;;;14.02;100.00
24858;BME280;12935;50.782;6.074;2022-10-16T03:08:53;99058.63;;;14.04;100.00
24858;BME280;12935;50.782;6.074;2022-10-16T03:11:19;99045.16;;;14.10;100.00
24858;BME280;12935;50.782;6.074;2022-10-16T03:13:44;99050.97;;;13.95;100.00
24858;BME280;12935;50.782;6.074;2022-10-16T03:16:09;99056.97;;;13.90;100.00
24858;BME280;12935;50.782;6.074;2022-10-16T03:18:35;99039.53;;;13.81;100.00
24858;BME280;12935;50.782;6.074;2022-10-16T03:21:00;99066.06;;;13.87;100.00
24858;BME280;12935;50.782;6.074;2022-10-16T03:23:25;99061.66;;;13.74;100.00
24858;BME280;12935;50.782;6.074;2022-10-16T03:25:50;99056.94;;;13.74;100.00
24858;BME280;12935;50.782;6.074;2022-10-16T03:28:16;99068.09;;;13.67;100.00
24858;BME280;12935;50.782;6.074;2022-10-16T03:30:42;99080.88;;;13.74;100.00
24858;BME280;12935;50.782;6.074;2022-10-16T03:33:08;99079.44;;;13.85;100.00
24858;BME280;12935;50.782;6.074;2022-10-16T03:35:33;99091.81;;;13.93;100.00
24858;BME280;12935;50.782;6.074;2022-10-16T03:37:58;99097.69;;;13.95;100.00
24858;BME280;12935;50.782;6.074;2022-10-16T03:40:24;99090.00;;;13.87;100.00
24858;BME280;12935;50.782;6.074;2022-10-16T03:42:49;99081.63;;;13.94;100.00
24858;BME280;12935;50.782;6.074;2022-10-16T03:45:14;99090.97;;;13.96;100.00
24858;BME280;12935;50.782;6.074;2022-10-16T03:47:39;99080.91;;;13.90;100.00
24858;BME280;12935;50.782;6.074;2022-10-16T03:50:05;99082.97;;;13.86;100.00
24858;BME280;12935;50.782;6.074;2022-10-16T03:52:31;99091.72;;;13.81;100.00
24858;BME280;12935;50.782;6.074;2022-10-16T03:54:57;99087.34;;;13.83;100.00
24858;BME280;12935;50.782;6.074;2022-10-16T03:57:22;99095.78;;;13.92;100.00
24858;BME280;12935;50.782;6.074;2022-10-16T03:59:48;99091.72;;;13.81;100.00
24858;BME280;12935;50.782;6.074;2022-10-16T04:02:13;99085.34;;;13.67;100.00
24858;BME280;12935;50.782;6.074;2022-10-16T04:04:38;99087.72;;;13.65;100.00
24858;BME280;12935;50.782;6.074;2022-10-16T04:07:04;99099.31;;;13.73;100.00
24858;BME280;12935;50.782;6.074;2022-10-16T04:09:29;99089.41;;;13.79;100.00
24858;BME280;12935;50.782;6.074;2022-10-16T04:11:55;99080.38;;;13.79;100.00
24858;BME280;12935;50.782;6.074;2022-10-16T04:14:20;99079.97;;;13.80;100.00
24858;BME280;12935;50.782;6.074;2022-10-16T04:16:45;99076.25;;;13.87;100.00
24858;BME280;12935;50.782;6.074;2022-10-16T04:19:11;99086.81;;;13.88;100.00
24858;BME280;12935;50.782;6.074;2022-10-16T04:21:36;99111.53;;;13.88;100.00
24858;BME280;12935;50.782;6.074;2022-10-16T04:24:02;99100.22;;;13.86;100.00
24858;BME280;12935;50.782;6.074;2022-10-16T04:26:28;99107.84;;;13.79;100.00
24858;BME280;12935;50.782;6.074;2022-10-16T04:28:53;99120.72;;;13.62;100.00
24858;BME280;12935;50.782;6.074;2022-10-16T04:31:19;99113.75;;;13.57;100.00
24858;BME280;12935;50.782;6.074;2022-10-16T04:33:44;99123.66;;;13.71;100.00
24858;BME280;12935;50.782;6.074;2022-10-16T04:36:09;99119.25;;;13.77;100.00
24858;BME280;12935;50.782;6.074;2022-10-16T04:38:35;99118.47;;;13.77;100.00
24858;BME280;12935;50.782;6.074;2022-10-16T04:41:03;99114.81;;;13.83;100.00
24858;BME280;12935;50.782;6.074;2022-10-16T04:43:28;99112.28;;;13.73;100.00
24858;BME280;12935;50.782;6.074;2022-10-16T04:45:53;99139.72;;;13.73;100.00
24858;BME280;12935;50.782;6.074;2022-10-16T04:48:19;99137.91;;;13.66;100.00
24858;BME280;12935;50.782;6.074;2022-10-16T04:50:45;99128.75;;;13.73;100.00
24858;BME280;12935;50.782;6.074;2022-10-16T04:53:10;99148.69;;;13.77;100.00
24858;BME280;12935;50.782;6.074;2022-10-16T04:55:36;99147.13;;;13.76;100.00
24858;BME280;12935;50.782;6.074;2022-10-16T04:58:02;99159.53;;;13.84;100.00
24858;BME280;12935;50.782;6.074;2022-10-16T05:00:27;99157.97;;;13.83;100.00
24858;BME280;12935;50.782;6.074;2022-10-16T05:02:53;99146.22;;;13.82;100.00
24858;BME280;12935;50.782;6.074;2022-10-16T05:05:18;99159.88;;;13.66;100.00
24858;BME280;12935;50.782;6.074;2022-10-16T05:07:47;99163.03;;;13.64;100.00
24858;BME280;12935;50.782;6.074;2022-10-16T05:10:13;99162.22;;;13.67;100.00
24858;BME280;12935;50.782;6.074;2022-10-16T05:12:38;99159.03;;;13.69;100.00
24858;BME280;12935;50.782;6.074;2022-10-16T05:15:04;99168.03;;;13.69;100.00
24858;BME280;12935;50.782;6.074;2022-10-16T05:17:29;99183.31;;;13.70;100.00
24858;BME280;12935;50.782;6.074;2022-10-16T05:19:55;99176.19;;;13.73;100.00
24858;BME280;12935;50.782;6.074;2022-10-16T05:22:20;99169.72;;;13.63;100.00
24858;BME280;12935;50.782;6.074;2022-10-16T05:24:45;99164.59;;;13.65;100.00
24858;BME280;12935;50.782;6.074;2022-10-16T05:27:11;99152.19;;;13.57;100.00
24858;BME280;12935;50.782;6.074;2022-10-16T05:29:46;99170.09;;;13.65;100.00
24858;BME280;12935;50.782;6.074;2022-10-16T05:32:13;99183.31;;;13.51;100.00
24858;BME280;12935;50.782;6.074;2022-10-16T05:34:39;99189.16;;;13.53;100.00
24858;BME280;12935;50.782;6.074;2022-10-16T05:37:04;99190.00;;;13.50;100.00
24858;BME280;12935;50.782;6.074;2022-10-16T05:39:30;99204.13;;;13.48;100.00
24858;BME280;12935;50.782;6.074;2022-10-16T05:41:55;99204.50;;;13.50;100.00
24858;BME280;12935;50.782;6.074;2022-10-16T05:44:21;99206.53;;;13.46;100.00
24858;BME280;12935;50.782;6.074;2022-10-16T05:46:46;99217.44;;;13.50;100.00
24858;BME280;12935;50.782;6.074;2022-10-16T05:49:12;99220.88;;;13.54;100.00
24858;BME280;12935;50.782;6.074;2022-10-16T05:51:37;99223.16;;;13.59;100.00
24858;BME280;12935;50.782;6.074;2022-10-16T05:54:02;99225.13;;;13.58;100.00
24858;BME280;12935;50.782;6.074;2022-10-16T05:56:28;99221.06;;;13.66;100.00
24858;BME280;12935;50.782;6.074;2022-10-16T05:58:53;99231.63;;;13.68;100.00
24858;BME280;12935;50.782;6.074;2022-10-16T06:01:19;99233.19;;;13.69;100.00
24858;BME280;12935;50.782;6.074;2022-10-16T06:03:46;99241.75;;;13.71;100.00
24858;BME280;12935;50.782;6.074;2022-10-16T06:06:13;99249.16;;;13.74;100.00
24858;BME280;12935;50.782;6.074;2022-10-16T06:08:39;99233.59;;;13.67;100.00
24858;BME280;12935;50.782;6.074;2022-10-16T06:11:08;99241.31;;;13.73;100.00
24858;BME280;12935;50.782;6.074;2022-10-16T06:13:34;99246.75;;;13.76;100.00
24858;BME280;12935;50.782;6.074;2022-10-16T06:16:00;99257.38;;;13.74;100.00
24858;BME280;12935;50.782;6.074;2022-10-16T06:18:27;99263.13;;;13.60;100.00
24858;BME280;12935;50.782;6.074;2022-10-16T06:20:53;99261.63;;;13.55;100.00
24858;BME280;12935;50.782;6.074;2022-10-16T06:23:18;99254.91;;;13.60;100.00
24858;BME280;12935;50.782;6.074;2022-10-16T06:25:43;99263.84;;;13.64;100.00
24858;BME280;12935;50.782;6.074;2022-10-16T06:28:09;99274.63;;;13.75;100.00
24858;BME280;12935;50.782;6.074;2022-10-16T06:30:34;99275.41;;;13.75;100.00
24858;BME280;12935;50.782;6.074;2022-10-16T06:32:59;99270.22;;;13.81;100.00
24858;BME280;12935;50.782;6.074;2022-10-16T06:35:25;99277.13;;;13.89;100.00
24858;BME280;12935;50.782;6.074;2022-10-16T06:37:52;99270.47;;;13.86;100.00
24858;BME280;12935;50.782;6.074;2022-10-16T06:40:17;99282.66;;;13.85;100.00
24858;BME280;12935;50.782;6.074;2022-10-16T06:42:42;99283.38;;;13.89;100.00
24858;BME280;12935;50.782;6.074;2022-10-16T06:45:08;99283.69;;;13.95;100.00
24858;BME280;12935;50.782;6.074;2022-10-16T06:47:33;99274.97;;;14.00;100.00
24858;BME280;12935;50.782;6.074;2022-10-16T06:49:58;99276.00;;;14.06;100.00
24858;BME280;12935;50.782;6.074;2022-10-16T06:52:24;99299.47;;;14.11;100.00
24858;BME280;12935;50.782;6.074;2022-10-16T06:54:49;99297.56;;;14.08;100.00
24858;BME280;12935;50.782;6.074;2022-10-16T06:57:15;99292.53;;;14.02;100.00
24858;BME280;12935;50.782;6.074;2022-10-16T06:59:40;99303.47;;;14.06;100.00
24858;BME280;12935;50.782;6.074;2022-10-16T07:02:06;99313.91;;;13.95;100.00
24858;BME280;12935;50.782;6.074;2022-10-16T07:04:32;99318.72;;;13.87;100.00
24858;BME280;12935;50.782;6.074;2022-10-16T07:06:57;99319.09;;;13.89;100.00
24858;BME280;12935;50.782;6.074;2022-10-16T07:09:25;99320.22;;;13.92;100.00
24858;BME280;12935;50.782;6.074;2022-10-16T07:11:50;99314.31;;;13.93;100.00
24858;BME280;12935;50.782;6.074;2022-10-16T07:14:17;99323.63;;;13.99;100.00
24858;BME280;12935;50.782;6.074;2022-10-16T07:16:43;99324.09;;;13.94;100.00
24858;BME280;12935;50.782;6.074;2022-10-16T07:19:09;99334.84;;;13.85;100.00
24858;BME280;12935;50.782;6.074;2022-10-16T07:21:36;99337.31;;;13.80;100.00
24858;BME280;12935;50.782;6.074;2022-10-16T07:24:02;99347.84;;;13.85;100.00
24858;BME280;12935;50.782;6.074;2022-10-16T07:26:30;99341.91;;;13.86;100.00
24858;BME280;12935;50.782;6.074;2022-10-16T07:28:56;99344.88;;;13.95;100.00
24858;BME280;12935;50.782;6.074;2022-10-16T07:31:22;99354.19;;;14.01;100.00
24858;BME280;12935;50.782;6.074;2022-10-16T07:33:48;99358.56;;;13.99;100.00
24858;BME280;12935;50.782;6.074;2022-10-16T07:36:15;99371.38;;;14.05;100.00
24858;BME280;12935;50.782;6.074;2022-10-16T07:38:41;99369.72;;;14.12;100.00
24858;BME280;12935;50.782;6.074;2022-10-16T07:41:09;99372.81;;;14.14;100.00
24858;BME280;12935;50.782;6.074;2022-10-16T07:43:35;99380.66;;;14.15;100.00
24858;BME280;12935;50.782;6.074;2022-10-16T07:46:01;99380.66;;;14.35;100.00
24858;BME280;12935;50.782;6.074;2022-10-16T07:48:29;99380.91;;;14.44;100.00
24858;BME280;12935;50.782;6.074;2022-10-16T07:50:59;99383.44;;;14.55;100.00
24858;BME280;12935;50.782;6.074;2022-10-16T07:53:24;99384.34;;;14.68;100.00
24858;BME280;12935;50.782;6.074;2022-10-16T07:55:49;99385.00;;;14.76;100.00
24858;BME280;12935;50.782;6.074;2022-10-16T07:58:15;99380.88;;;14.84;100.00
24858;BME280;12935;50.782;6.074;2022-10-16T08:00:40;99391.47;;;14.85;100.00
24858;BME280;12935;50.782;6.074;2022-10-16T08:03:05;99395.66;;;14.73;100.00
24858;BME280;12935;50.782;6.074;2022-10-16T08:05:31;99396.19;;;14.85;100.00
24858;BME280;12935;50.782;6.074;2022-10-16T08:07:57;99406.16;;;14.79;100.00
24858;BME280;12935;50.782;6.074;2022-10-16T08:10:25;99410.66;;;14.89;100.00
24858;BME280;12935;50.782;6.074;2022-10-16T08:12:51;99411.84;;;15.07;100.00
24858;BME280;12935;50.782;6.074;2022-10-16T08:15:17;99411.13;;;15.03;100.00
24858;BME280;12935;50.782;6.074;2022-10-16T08:17:42;99417.47;;;15.20;100.00
24858;BME280;12935;50.782;6.074;2022-10-16T08:20:08;99420.59;;;15.38;100.00
24858;BME280;12935;50.782;6.074;2022-10-16T08:22:34;99418.38;;;15.50;100.00
24858;BME280;12935;50.782;6.074;2022-10-16T08:24:59;99429.44;;;15.46;100.00
24858;BME280;12935;50.782;6.074;2022-10-16T08:27:24;99429.25;;;15.57;100.00
24858;BME280;12935;50.782;6.074;2022-10-16T08:29:50;99438.91;;;15.81;100.00
24858;BME280;12935;50.782;6.074;2022-10-16T08:32:15;99440.03;;;15.84;100.00
24858;BME280;12935;50.782;6.074;2022-10-16T08:34:41;99434.59;;;15.80;100.00
24858;BME280;12935;50.782;6.074;2022-10-16T08:37:06;99442.34;;;15.85;100.00
24858;BME280;12935;50.782;6.074;2022-10-16T08:39:33;99446.31;;;15.84;100.00
24858;BME280;12935;50.782;6.074;2022-10-16T08:45:08;99450.84;;;16.07;100.00
24858;BME280;12935;50.782;6.074;2022-10-16T08:50:30;99454.72;;;16.09;100.00
24858;BME280;12935;50.782;6.074;2022-10-16T08:52:57;99456.28;;;16.10;100.00
24858;BME280;12935;50.782;6.074;2022-10-16T08:57:54;99455.16;;;16.08;100.00
24858;BME280;12935;50.782;6.074;2022-10-16T09:00:20;99458.78;;;16.21;100.00
24858;BME280;12935;50.782;6.074;2022-10-16T09:02:53;99456.53;;;16.16;100.00
24858;BME280;12935;50.782;6.074;2022-10-16T09:05:43;99456.56;;;16.00;100.00
24858;BME280;12935;50.782;6.074;2022-10-16T09:08:24;99458.34;;;16.23;100.00
24858;BME280;12935;50.782;6.074;2022-10-16T09:11:01;99467.00;;;16.37;100.00
24858;BME280;12935;50.782;6.074;2022-10-16T09:13:47;99471.97;;;16.59;100.00
24858;BME280;12935;50.782;6.074;2022-10-16T09:16:24;99467.31;;;16.72;100.00
24858;BME280;12935;50.782;6.074;2022-10-16T09:19:16;99473.94;;;17.03;100.00
24858;BME280;12935;50.782;6.074;2022-10-16T09:21:45;99476.84;;;17.12;100.00
24858;BME280;12935;50.782;6.074;2022-10-16T09:24:21;99482.84;;;17.36;100.00
24858;BME280;12935;50.782;6.074;2022-10-16T09:26:47;99473.06;;;17.19;100.00
24858;BME280;12935;50.782;6.074;2022-10-16T09:29:13;99479.47;;;17.70;100.00
24858;BME280;12935;50.782;6.074;2022-10-16T09:31:39;99472.91;;;18.02;100.00
24858;BME280;12935;50.782;6.074;2022-10-16T09:34:06;99474.00;;;18.17;100.00
24858;BME280;12935;50.782;6.074;2022-10-16T09:36:40;99475.78;;;18.46;100.00
24858;BME280;12935;50.782;6.074;2022-10-16T09:39:11;99470.66;;;18.91;100.00
24858;BME280;12935;50.782;6.074;2022-10-16T09:41:42;99462.59;;;19.28;100.00
24858;BME280;12935;50.782;6.074;2022-10-16T09:44:34;99467.09;;;19.66;96.85
24858;BME280;12935;50.782;6.074;2022-10-16T09:47:04;99469.94;;;19.84;95.21
24858;BME280;12935;50.782;6.074;2022-10-16T09:49:30;99478.28;;;19.93;92.98
24858;BME280;12935;50.782;6.074;2022-10-16T09:52:13;99484.84;;;20.26;90.56
24858;BME280;12935;50.782;6.074;2022-10-16T09:54:53;99477.44;;;20.14;84.35
24858;BME280;12935;50.782;6.074;2022-10-16T09:57:20;99469.13;;;20.32;84.88
24858;BME280;12935;50.782;6.074;2022-10-16T09:59:48;99464.53;;;20.66;84.70
24858;BME280;12935;50.782;6.074;2022-10-16T10:02:15;99462.69;;;20.54;81.10
24858;BME280;12935;50.782;6.074;2022-10-16T10:04:48;99468.53;;;20.47;81.40
24858;BME280;12935;50.782;6.074;2022-10-16T10:07:20;99478.22;;;20.33;86.86
24858;BME280;12935;50.782;6.074;2022-10-16T10:09:48;99458.25;;;19.89;84.07
24858;BME280;12935;50.782;6.074;2022-10-16T10:12:19;99469.06;;;19.56;88.04
24858;BME280;12935;50.782;6.074;2022-10-16T10:14:48;99477.88;;;19.42;92.69
24858;BME280;12935;50.782;6.074;2022-10-16T10:17:15;99485.00;;;18.77;90.82
24858;BME280;12935;50.782;6.074;2022-10-16T10:22:40;99492.28;;;18.49;98.59
24858;BME280;12935;50.782;6.074;2022-10-16T10:38:50;99491.06;;;18.63;99.79
24858;BME280;12935;50.782;6.074;2022-10-16T10:52:47;99511.16;;;19.42;93.04
24858;BME280;12935;50.782;6.074;2022-10-16T10:55:25;99509.63;;;19.72;89.82
24858;BME280;12935;50.782;6.074;2022-10-16T11:00:46;99508.22;;;19.98;87.57
24858;BME280;12935;50.782;6.074;2022-10-16T11:03:46;99507.09;;;20.54;81.29
24858;BME280;12935;50.782;6.074;2022-10-16T11:08:58;99515.09;;;21.43;78.15
24858;BME280;12935;50.782;6.074;2022-10-16T11:11:31;99513.59;;;22.17;70.47
24858;BME280;12935;50.782;6.074;2022-10-16T11:16:39;99514.84;;;21.23;67.34
24858;BME280;12935;50.782;6.074;2022-10-16T11:22:19;99507.88;;;21.79;66.34
24858;BME280;12935;50.782;6.074;2022-10-16T11:27:48;99515.13;;;21.85;66.90
24858;BME280;12935;50.782;6.074;2022-10-16T11:30:21;99513.91;;;21.77;66.06
24858;BME280;12935;50.782;6.074;2022-10-16T11:33:04;99514.16;;;21.55;67.37
24858;BME280;12935;50.782;6.074;2022-10-16T11:35:43;99515.81;;;22.04;64.39
24858;BME280;12935;50.782;6.074;2022-10-16T11:38:20;99527.03;;;21.86;65.94
24858;BME280;12935;50.782;6.074;2022-10-16T11:40:50;99518.81;;;22.24;60.45
24858;BME280;12935;50.782;6.074;2022-10-16T11:43:25;99523.78;;;22.44;62.84
24858;BME280;12935;50.782;6.074;2022-10-16T11:45:54;99517.84;;;22.75;60.96
24858;BME280;12935;50.782;6.074;2022-10-16T11:48:28;99518.84;;;23.69;57.22
24858;BME280;12935;50.782;6.074;2022-10-16T11:51:07;99513.41;;;24.30;52.86
24858;BME280;12935;50.782;6.074;2022-10-16T11:53:55;99515.63;;;24.26;54.26
24858;BME280;12935;50.782;6.074;2022-10-16T11:56:22;99513.13;;;24.89;53.28
24858;BME280;12935;50.782;6.074;2022-10-16T12:01:26;99502.25;;;24.30;53.07
24858;BME280;12935;50.782;6.074;2022-10-16T12:04:02;99514.78;;;23.12;53.74
24858;BME280;12935;50.782;6.074;2022-10-16T12:09:05;99516.47;;;22.80;59.01
24858;BME280;12935;50.782;6.074;2022-10-16T12:11:38;99514.28;;;22.74;59.28
24858;BME280;12935;50.782;6.074;2022-10-16T12:16:39;99514.13;;;22.30;59.00
24858;BME280;12935;50.782;6.074;2022-10-16T12:19:16;99510.03;;;22.40;59.38
24858;BME280;12935;50.782;6.074;2022-10-16T12:21:43;99514.91;;;22.31;60.66
24858;BME280;12935;50.782;6.074;2022-10-16T12:24:30;99505.47;;;23.44;56.12
24858;BME280;12935;50.782;6.074;2022-10-16T12:26:56;99512.28;;;23.14;55.23
24858;BME280;12935;50.782;6.074;2022-10-16T12:31:51;99511.44;;;23.52;55.58
24858;BME280;12935;50.782;6.074;2022-10-16T12:34:27;99504.72;;;24.89;50.52
24858;BME280;12935;50.782;6.074;2022-10-16T12:36:53;99500.09;;;24.05;50.77
24858;BME280;12935;50.782;6.074;2022-10-16T12:39:24;99507.03;;;24.91;50.61
24858;BME280;12935;50.782;6.074;2022-10-16T12:42:04;99499.81;;;24.38;52.40
24858;BME280;12935;50.782;6.074;2022-10-16T12:44:35;99491.34;;;25.45;50.03
24858;BME280;12935;50.782;6.074;2022-10-16T12:47:01;99492.91;;;26.20;49.52
24858;BME280;12935;50.782;6.074;2022-10-16T12:49:37;99498.25;;;26.77;44.86
24858;BME280;12935;50.782;6.074;2022-10-16T12:52:25;99492.72;;;26.94;44.35
24858;BME280;12935;50.782;6.074;2022-10-16T12:54:50;99500.72;;;27.57;42.54
24858;BME280;12935;50.782;6.074;2022-10-16T13:00:18;99505.22;;;26.99;41.63
24858;BME280;12935;50.782;6.074;2022-10-16T13:06:16;99478.78;;;27.83;41.02
24858;BME280;12935;50.782;6.074;2022-10-16T13:12:00;99491.97;;;28.91;39.57
24858;BME280;12935;50.782;6.074;2022-10-16T13:17:37;99493.56;;;30.98;34.33
24858;BME280;12935;50.782;6.074;2022-10-16T13:23:13;99493.59;;;33.41;30.84
24858;BME280;12935;50.782;6.074;2022-10-16T13:25:54;99484.31;;;30.17;34.40
24858;BME280;12935;50.782;6.074;2022-10-16T13:28:28;99492.81;;;27.72;38.66
24858;BME280;12935;50.782;6.074;2022-10-16T13:30:57;99487.19;;;27.33;40.42
24858;BME280;12935;50.782;6.074;2022-10-16T13:33:35;99490.28;;;27.63;39.85
24858;BME280;12935;50.782;6.074;2022-10-16T13:36:01;99483.84;;;27.12;40.59
24858;BME280;12935;50.782;6.074;2022-10-16T13:38:29;99478.19;;;25.25;45.83
24858;BME280;12935;50.782;6.074;2022-10-16T13:41:14;99492.44;;;29.36;37.99
24858;BME280;12935;50.782;6.074;2022-10-16T13:43:45;99500.59;;;26.90;41.88
24858;BME280;12935;50.782;6.074;2022-10-16T13:46:13;99504.44;;;29.37;39.08
24858;BME280;12935;50.782;6.074;2022-10-16T13:48:39;99503.44;;;28.35;39.27
24858;BME280;12935;50.782;6.074;2022-10-16T13:51:16;99503.72;;;25.96;43.15
24858;BME280;12935;50.782;6.074;2022-10-16T13:53:43;99495.13;;;24.70;46.50
24858;BME280;12935;50.782;6.074;2022-10-16T13:56:17;99491.59;;;23.79;49.28
24858;BME280;12935;50.782;6.074;2022-10-16T13:58:44;99496.47;;;22.81;53.96
24858;BME280;12935;50.782;6.074;2022-10-16T14:01:28;99497.13;;;22.52;55.98
24858;BME280;12935;50.782;6.074;2022-10-16T14:04:01;99494.69;;;22.21;57.56
24858;BME280;12935;50.782;6.074;2022-10-16T14:06:27;99490.19;;;22.00;59.13
24858;BME280;12935;50.782;6.074;2022-10-16T14:11:23;99491.25;;;21.60;62.67
24858;BME280;12935;50.782;6.074;2022-10-16T14:13:49;99493.81;;;21.13;67.20
24858;BME280;12935;50.782;6.074;2022-10-16T14:16:30;99504.94;;;21.13;67.26
24858;BME280;12935;50.782;6.074;2022-10-16T14:19:02;99503.09;;;21.00;71.60
24858;BME280;12935;50.782;6.074;2022-10-16T14:21:28;99508.34;;;20.62;78.40
24858;BME280;12935;50.782;6.074;2022-10-16T14:23:54;99509.91;;;20.72;77.14
24858;BME280;12935;50.782;6.074;2022-10-16T14:26:22;99506.81;;;20.70;75.49
24858;BME280;12935;50.782;6.074;2022-10-16T14:28:49;99505.09;;;20.63;77.47
24858;BME280;12935;50.782;6.074;2022-10-16T14:31:27;99505.72;;;20.67;77.41